Time;durP1;ratioP1;P1;durP2;ratioP2;P2;SDS_P1;SDS_P2;PMS_P1;PMS_P2;Temp;Humidity;BMP_temperature;BMP_pressure;BME280_temperature;BME280_humidity;BME280_pressure;Samples;Min_cycle;Max_cycle;Signal;HPM_P1;HPM_P2
2022/11/25 00:01:11;;;;;;;7.78;2.78;;;7.10;99.90;;;;;;5066935;28;20040;-82
2022/11/25 00:03:38;;;;;;;4.97;2.13;;;7.20;99.90;;;;;;5083871;28;20423;-82
2022/11/25 00:06:15;;;;;;;9.23;2.20;;;7.30;99.90;;;;;;5067178;28;20055;-82
2022/11/25 00:08:43;;;;;;;8.68;2.25;;;7.20;99.90;;;;;;5083201;28;20200;-82
2022/11/25 00:11:10;;;;;;;9.57;1.60;;;7.30;99.90;;;;;;5083247;28;20031;-82
2022/11/25 00:13:36;;;;;;;6.80;2.22;;;7.30;99.90;;;;;;5080633;28;20039;-87
2022/11/25 00:16:08;;;;;;;8.15;2.00;;;7.30;99.90;;;;;;5080197;28;20077;-87
2022/11/25 00:18:37;;;;;;;8.32;1.60;;;7.30;99.90;;;;;;5079481;28;20043;-86
2022/11/25 00:21:09;;;;;;;12.95;1.85;;;7.30;99.90;;;;;;5079813;28;20045;-86
2022/11/25 00:23:36;;;;;;;12.32;2.25;;;7.30;99.90;;;;;;5080173;28;20044;-86
2022/11/25 00:26:09;;;;;;;8.82;2.90;;;8.50;99.90;;;;;;5080152;28;20483;-87
2022/11/25 00:28:40;;;;;;;4.50;1.80;;;7.30;99.90;;;;;;5080505;28;20036;-87
2022/11/25 00:31:14;;;;;;;13.75;2.22;;;7.30;99.90;;;;;;5080429;28;20114;-87
2022/11/25 00:33:40;;;;;;;6.93;2.05;;;;;;;;;;5079796;28;20149;-87
2022/11/25 00:36:20;;;;;;;2.90;1.52;;;7.20;99.90;;;;;;5079970;28;20048;-87
2022/11/25 00:38:46;;;;;;;6.32;2.17;;;7.70;99.90;;;;;;5080315;28;20039;-87
2022/11/25 00:46:50;;;;;;;8.15;1.50;;;8.00;99.90;;;;;;5096815;28;20047;-85
2022/11/25 00:49:18;;;;;;;6.10;2.00;;;7.30;99.90;;;;;;5064506;28;20048;-85
2022/11/25 00:51:44;;;;;;;5.85;1.58;;;7.40;99.90;;;;;;5091101;28;20047;-85
2022/11/25 00:54:10;;;;;;;9.88;2.55;;;;;;;;;;5079439;28;20089;-85
2022/11/25 00:56:36;;;;;;;8.18;2.20;;;7.20;99.90;;;;;;5079900;28;20040;-85
2022/11/25 00:59:05;;;;;;;4.78;1.92;;;7.30;99.90;;;;;;5079698;28;20878;-85
2022/11/25 01:01:30;;;;;;;4.45;1.67;;;7.40;99.90;;;;;;5062408;28;20054;-85
2022/11/25 01:03:56;;;;;;;7.18;1.60;;;7.20;99.90;;;;;;5114287;28;20406;-85
2022/11/25 01:06:22;;;;;;;6.22;1.52;;;7.20;99.90;;;;;;5079417;28;20173;-85
2022/11/25 01:08:48;;;;;;;13.23;2.22;;;9.10;99.90;;;;;;5062757;28;20483;-85
2022/11/25 01:11:17;;;;;;;9.10;1.85;;;7.20;99.90;;;;;;5059264;28;20032;-84
2022/11/25 01:13:44;;;;;;;4.03;1.55;;;7.30;99.90;;;;;;5078734;28;20043;-84
2022/11/25 01:16:16;;;;;;;5.90;1.67;;;8.10;99.90;;;;;;5079287;28;20471;-85
2022/11/25 01:18:42;;;;;;;6.20;1.42;;;8.60;99.90;;;;;;5095353;28;20043;-84
2022/11/25 01:21:11;;;;;;;5.20;1.73;;;7.30;99.90;;;;;;5078856;28;20624;-81
2022/11/25 01:23:40;;;;;;;8.60;1.90;;;7.30;99.90;;;;;;5079132;28;20509;-81
2022/11/25 01:26:12;;;;;;;12.63;2.08;;;7.40;99.90;;;;;;5078516;28;20047;-81
2022/11/25 01:28:42;;;;;;;13.15;2.33;;;7.40;99.90;;;;;;5096291;28;20483;-81
2022/11/25 01:31:16;;;;;;;5.53;1.63;;;7.40;99.90;;;;;;5078827;28;20039;-81
2022/11/25 01:33:43;;;;;;;7.22;1.60;;;7.50;99.90;;;;;;5087474;28;20550;-81
2022/11/25 01:36:17;;;;;;;12.95;1.95;;;7.50;99.90;;;;;;5079038;28;20052;-87
2022/11/25 01:38:50;;;;;;;7.18;1.80;;;7.50;99.90;;;;;;5077552;28;20040;-86
2022/11/25 01:41:18;;;;;;;9.50;2.05;;;7.50;99.90;;;;;;5079111;28;20043;-86
2022/11/25 01:44:10;;;;;;;6.18;1.60;;;7.50;99.90;;;;;;5077182;28;20035;-87
2022/11/25 01:47:05;;;;;;;7.38;1.83;;;7.40;99.90;;;;;;5078397;28;20032;-86
2022/11/25 01:49:40;;;;;;;7.55;2.20;;;7.40;99.90;;;;;;5078861;28;20039;-87
2022/11/25 01:52:15;;;;;;;3.63;1.50;;;7.50;99.90;;;;;;5101220;28;20516;-86
2022/11/25 01:54:54;;;;;;;4.78;1.50;;;7.50;99.90;;;;;;5095756;28;20051;-85
2022/11/25 01:57:42;;;;;;;8.85;2.20;;;7.50;99.90;;;;;;5077843;28;20177;-85
2022/11/25 02:00:09;;;;;;;5.63;1.77;;;7.90;99.90;;;;;;5091681;28;20043;-85
2022/11/25 02:02:35;;;;;;;5.13;1.77;;;7.50;99.90;;;;;;5092645;28;20039;-85
2022/11/25 02:05:05;;;;;;;6.47;1.67;;;7.70;99.90;;;;;;5063645;28;20069;-85
2022/11/25 02:07:36;;;;;;;4.68;1.85;;;7.40;99.90;;;;;;5094797;28;20051;-85
2022/11/25 02:10:11;;;;;;;7.07;2.13;;;7.50;99.90;;;;;;5095211;28;20100;-85
2022/11/25 02:12:47;;;;;;;10.75;2.20;;;7.40;99.90;;;;;;5078755;28;20051;-85
2022/11/25 02:15:16;;;;;;;4.55;1.60;;;7.40;99.90;;;;;;5076095;28;20234;-85
2022/11/25 02:17:48;;;;;;;8.80;2.05;;;7.40;99.90;;;;;;5077329;28;20050;-85
2022/11/25 02:20:17;;;;;;;4.57;1.60;;;6.70;99.90;;;;;;5078527;28;20076;-85
2022/11/25 02:23:14;;;;;;;5.95;2.25;;;7.10;99.90;;;;;;5078354;28;20042;-85
2022/11/25 02:25:42;;;;;;;5.88;1.95;;;7.40;99.90;;;;;;5078193;28;20581;-85
2022/11/25 02:28:11;;;;;;;7.15;1.80;;;;;;;;;;5078202;28;20487;-82
2022/11/25 02:30:53;;;;;;;16.15;1.85;;;7.40;99.90;;;;;;5078004;28;20164;-81
2022/11/25 02:33:21;;;;;;;5.55;1.67;;;7.40;99.90;;;;;;5077435;28;20043;-81
2022/11/25 02:35:58;;;;;;;9.00;1.83;;;8.80;99.90;;;;;;5077350;28;20047;-81
2022/11/25 02:38:41;;;;;;;4.82;1.92;;;7.40;99.90;;;;;;5078685;28;20435;-81
2022/11/25 02:41:33;;;;;;;8.45;1.88;;;7.40;99.90;;;;;;5078095;28;20043;-81
2022/11/25 02:44:05;;;;;;;3.42;1.70;;;7.40;99.90;;;;;;5074360;28;20036;-87
2022/11/25 02:46:41;;;;;;;12.55;2.15;;;7.30;99.90;;;;;;5077344;28;20067;-87
2022/11/25 02:49:09;;;;;;;5.93;1.73;;;8.60;99.90;;;;;;5061787;28;20040;-87
2022/11/25 02:51:39;;;;;;;10.45;2.20;;;7.40;99.90;;;;;;5071735;28;20039;-87
2022/11/25 02:54:14;;;;;;;6.03;2.00;;;8.10;99.90;;;;;;5085114;28;20322;-87
2022/11/25 02:56:40;;;;;;;20.63;2.70;;;7.40;99.90;;;;;;5077055;28;20047;-87
2022/11/25 02:59:12;;;;;;;6.07;2.03;;;8.90;99.90;;;;;;5077874;28;20031;-87
2022/11/25 03:01:43;;;;;;;10.75;2.35;;;8.00;99.90;;;;;;5077770;28;20040;-82
2022/11/25 03:04:09;;;;;;;6.20;2.28;;;;;;;;;;5051111;28;20071;-82
2022/11/25 03:06:38;;;;;;;5.60;1.77;;;7.50;99.90;;;;;;5077386;28;20044;-82
2022/11/25 03:09:15;;;;;;;6.60;2.47;;;;;;;;;;5061054;28;20467;-83
2022/11/25 03:18:32;;;;;;;6.65;2.05;;;7.60;99.90;;;;;;5105404;28;20048;-82
2022/11/25 03:20:59;;;;;;;3.67;1.65;;;;;;;;;;5074356;28;20082;-82
2022/11/25 03:23:51;;;;;;;4.13;1.67;;;7.60;99.90;;;;;;5078244;28;20048;-81
2022/11/25 03:26:30;;;;;;;9.00;1.90;;;7.30;99.90;;;;;;5044478;28;20032;-81
2022/11/25 03:29:13;;;;;;;6.30;2.30;;;7.70;99.90;;;;;;5074384;28;20039;-82
2022/11/25 03:31:39;;;;;;;6.35;2.25;;;;;;;;;;5066442;28;20032;-82
2022/11/25 03:34:47;;;;;;;6.60;2.17;;;7.60;99.90;;;;;;5077754;28;20376;-82
2022/11/25 03:38:01;;;;;;;8.82;2.20;;;7.60;99.90;;;;;;5059920;28;20052;-81
2022/11/25 03:40:57;;;;;;;7.40;1.95;;;5.50;99.90;;;;;;5076047;28;20407;-81
2022/11/25 03:44:03;;;;;;;7.10;2.85;;;7.60;99.90;;;;;;5069333;28;20051;-81
2022/11/25 03:47:23;;;;;;;6.65;1.52;;;7.80;99.90;;;;;;5083817;28;20050;-81
2022/11/25 03:50:09;;;;;;;2.90;1.42;;;7.60;99.90;;;;;;5063614;28;20039;-82
2022/11/25 03:53:06;;;;;;;8.55;2.35;;;7.70;99.90;;;;;;5070848;28;20048;-83
2022/11/25 03:56:23;;;;;;;6.60;1.83;;;7.30;99.90;;;;;;5067615;28;20076;-82
2022/11/25 03:59:19;;;;;;;4.53;1.70;;;8.00;99.90;;;;;;5065351;28;20035;-83
2022/11/25 04:01:58;;;;;;;8.23;1.80;;;7.70;99.90;;;;;;5081096;28;20051;-82
2022/11/25 04:04:26;;;;;;;4.63;1.50;;;7.30;99.90;;;;;;5060943;28;20048;-82
2022/11/25 04:06:55;;;;;;;4.13;2.00;;;7.70;99.90;;;;;;5076761;28;20048;-81
2022/11/25 04:09:21;;;;;;;7.25;2.45;;;7.70;99.90;;;;;;5077292;28;20524;-81
2022/11/25 04:14:35;;;;;;;6.05;2.08;;;7.80;99.90;;;;;;5093894;28;20036;-81
2022/11/25 04:17:06;;;;;;;7.07;2.33;;;8.00;99.90;;;;;;5093329;28;20048;-81
2022/11/25 04:19:35;;;;;;;6.45;2.65;;;;;;;;;;5060912;28;20035;-81
2022/11/25 04:22:11;;;;;;;4.88;2.03;;;7.70;99.90;;;;;;5077945;28;20546;-81
2022/11/25 04:24:48;;;;;;;10.07;2.47;;;7.80;99.90;;;;;;5050504;28;20079;-81
2022/11/25 04:27:14;;;;;;;7.90;2.15;;;6.10;99.90;;;;;;5069265;28;20062;-81
2022/11/25 04:29:45;;;;;;;8.52;2.55;;;7.80;99.90;;;;;;5093891;28;20051;-81
2022/11/25 04:32:13;;;;;;;8.25;2.60;;;8.00;99.90;;;;;;5060250;28;20687;-81
2022/11/25 04:34:42;;;;;;;7.22;2.10;;;7.30;99.90;;;;;;5076856;28;20039;-81
2022/11/25 04:37:14;;;;;;;10.23;2.67;;;7.70;99.90;;;;;;5076778;28;20098;-81
2022/11/25 04:39:40;;;;;;;10.43;2.42;;;7.90;99.90;;;;;;5093496;28;20052;-81
2022/11/25 04:45:01;;;;;;;4.40;2.33;;;6.90;99.90;;;;;;5079028;28;20089;-81
2022/11/25 04:47:32;;;;;;;9.90;2.60;;;7.70;99.90;;;;;;5076441;28;20063;-81
2022/11/25 04:50:01;;;;;;;5.68;2.10;;;8.40;99.90;;;;;;5069367;28;20098;-81
2022/11/25 04:52:27;;;;;;;4.53;2.40;;;8.90;99.90;;;;;;5059683;28;20036;-81
2022/11/25 04:54:53;;;;;;;8.00;2.45;;;9.20;99.90;;;;;;5094399;28;20483;-81
2022/11/25 04:57:24;;;;;;;7.90;2.20;;;7.70;99.90;;;;;;5059670;28;20043;-81
2022/11/25 04:59:52;;;;;;;8.05;2.25;;;6.90;99.90;;;;;;5058333;28;20040;-81
2022/11/25 05:02:24;;;;;;;10.18;2.25;;;7.80;99.90;;;;;;5076980;28;20036;-81
2022/11/25 05:04:55;;;;;;;7.28;2.30;;;7.70;99.90;;;;;;5076379;28;20127;-81
2022/11/25 05:07:24;;;;;;;6.60;2.60;;;8.20;99.90;;;;;;5093032;28;20044;-81
2022/11/25 05:09:49;;;;;;;11.55;2.90;;;8.70;99.90;;;;;;5075474;28;20531;-81
2022/11/25 05:12:18;;;;;;;8.35;2.65;;;7.70;99.90;;;;;;5059340;28;20111;-81
2022/11/25 05:14:48;;;;;;;7.50;2.35;;;9.10;99.90;;;;;;5076028;28;20164;-81
2022/11/25 05:17:21;;;;;;;8.10;2.70;;;9.00;99.90;;;;;;5075690;28;20036;-81
2022/11/25 05:19:49;;;;;;;12.48;2.13;;;7.70;99.90;;;;;;5076400;28;20090;-81
2022/11/25 05:22:19;;;;;;;6.72;2.03;;;5.90;99.90;;;;;;5075614;28;20032;-81
2022/11/25 05:24:51;;;;;;;9.02;2.55;;;8.00;99.90;;;;;;5075994;28;20434;-81
2022/11/25 05:27:17;;;;;;;10.50;2.72;;;7.90;99.90;;;;;;5092663;28;20058;-81
2022/11/25 05:29:43;;;;;;;7.68;2.25;;;7.70;99.90;;;;;;5075523;28;20123;-81
2022/11/25 05:32:15;;;;;;;6.82;2.20;;;8.50;99.90;;;;;;5075717;28;20505;-81
2022/11/25 05:34:42;;;;;;;8.90;2.78;;;7.70;99.90;;;;;;5075463;28;20032;-81
2022/11/25 05:37:11;;;;;;;9.52;2.17;;;7.70;99.90;;;;;;5075474;28;20043;-81
2022/11/25 05:39:37;;;;;;;3.67;1.80;;;7.80;99.90;;;;;;5075502;28;20051;-81
2022/11/25 05:42:03;;;;;;;6.88;2.03;;;9.10;99.90;;;;;;5092382;28;20115;-81
2022/11/25 05:44:29;;;;;;;10.05;2.55;;;7.80;99.90;;;;;;5075020;28;20036;-81
2022/11/25 05:46:55;;;;;;;7.03;2.15;;;7.80;99.90;;;;;;5091943;28;20043;-82
2022/11/25 05:49:20;;;;;;;6.40;2.00;;;8.10;99.90;;;;;;5091727;28;20450;-82
2022/11/25 05:51:47;;;;;;;12.02;2.17;;;8.00;99.90;;;;;;5092325;28;20036;-82
2022/11/25 05:54:12;;;;;;;8.68;2.38;;;7.80;99.90;;;;;;5093333;28;20472;-82
2022/11/25 05:56:38;;;;;;;7.65;2.30;;;7.80;99.90;;;;;;5091819;28;20043;-82
2022/11/25 05:59:05;;;;;;;9.88;2.85;;;9.20;99.90;;;;;;5091637;28;20039;-82
2022/11/25 06:01:32;;;;;;;5.88;2.13;;;8.30;99.90;;;;;;5074593;28;20113;-82
2022/11/25 06:04:01;;;;;;;7.80;2.28;;;8.60;99.90;;;;;;5096615;28;20075;-84
2022/11/25 06:06:27;;;;;;;7.53;1.83;;;7.90;99.90;;;;;;5078594;28;20059;-85
2022/11/25 06:08:53;;;;;;;6.32;2.33;;;7.80;99.90;;;;;;5095282;28;20051;-84
2022/11/25 06:11:19;;;;;;;4.93;1.77;;;7.80;99.90;;;;;;5112589;28;20082;-85
2022/11/25 06:13:45;;;;;;;6.97;2.28;;;7.80;99.90;;;;;;5112179;28;20032;-84
2022/11/25 06:16:18;;;;;;;7.53;2.80;;;7.90;99.90;;;;;;5078340;28;20032;-84
2022/11/25 06:18:43;;;;;;;6.15;2.33;;;7.90;99.90;;;;;;5095062;28;20456;-84
2022/11/25 06:21:11;;;;;;;3.70;2.05;;;7.90;99.90;;;;;;5078593;28;20036;-82
2022/11/25 06:23:38;;;;;;;7.45;2.72;;;7.80;99.90;;;;;;5077386;28;20035;-82
2022/11/25 06:26:05;;;;;;;8.32;2.40;;;8.40;99.90;;;;;;5078201;28;20035;-82
2022/11/25 06:28:32;;;;;;;8.35;2.20;;;7.70;99.90;;;;;;5094812;28;20482;-82
2022/11/25 06:31:04;;;;;;;5.05;2.10;;;7.80;99.90;;;;;;5061575;28;20124;-82
2022/11/25 06:33:30;;;;;;;11.20;2.90;;;7.70;99.90;;;;;;5077763;28;20043;-82
2022/11/25 06:35:56;;;;;;;6.53;2.88;;;9.00;99.90;;;;;;5077545;28;20035;-82
2022/11/25 06:38:22;;;;;;;8.18;2.90;;;8.70;99.90;;;;;;5078018;28;20035;-82
2022/11/25 06:40:48;;;;;;;11.65;2.83;;;7.80;99.90;;;;;;5077846;28;20058;-82
2022/11/25 06:43:13;;;;;;;8.90;2.30;;;7.80;99.90;;;;;;5112441;28;20043;-82
2022/11/25 06:45:39;;;;;;;9.55;2.72;;;8.60;99.90;;;;;;5057465;28;20060;-82
2022/11/25 06:48:05;;;;;;;9.07;2.60;;;7.90;99.90;;;;;;5072489;28;20128;-82
2022/11/25 06:50:31;;;;;;;10.27;2.10;;;8.50;99.90;;;;;;5112520;28;20391;-82
2022/11/25 06:53:00;;;;;;;6.38;2.40;;;8.80;99.90;;;;;;5112717;28;20042;-84
2022/11/25 06:55:29;;;;;;;9.90;2.60;;;7.80;99.90;;;;;;5077536;28;20035;-85
2022/11/25 06:57:54;;;;;;;6.65;1.85;;;7.70;99.90;;;;;;5058635;28;20067;-84
2022/11/25 07:00:20;;;;;;;8.07;2.72;;;7.70;99.90;;;;;;5076696;28;20082;-84
2022/11/25 07:02:46;;;;;;;6.22;2.65;;;7.70;99.90;;;;;;5058277;28;20455;-84
2022/11/25 07:05:12;;;;;;;8.98;2.30;;;7.50;99.90;;;;;;5050031;28;20123;-84
2022/11/25 07:07:38;;;;;;;5.30;2.30;;;7.40;99.90;;;;;;5094588;28;20051;-84
2022/11/25 07:10:04;;;;;;;6.95;2.67;;;8.40;99.90;;;;;;5095481;28;20082;-86
2022/11/25 07:12:30;;;;;;;5.00;1.60;;;7.30;99.90;;;;;;5058443;28;20197;-86
2022/11/25 07:14:55;;;;;;;8.10;2.08;;;7.50;99.90;;;;;;5074188;28;20065;-86
2022/11/25 07:17:21;;;;;;;8.10;2.30;;;7.90;99.90;;;;;;5092149;28;20085;-86
2022/11/25 07:19:47;;;;;;;6.60;2.03;;;7.10;99.90;;;;;;5077721;28;20065;-86
2022/11/25 07:22:13;;;;;;;6.25;2.40;;;7.20;99.90;;;;;;5094214;28;20172;-86
2022/11/25 07:24:38;;;;;;;5.60;1.90;;;8.70;99.90;;;;;;5065075;28;20039;-86
2022/11/25 07:27:09;;;;;;;7.85;2.20;;;8.90;99.90;;;;;;5064994;28;20127;-82
2022/11/25 07:29:35;;;;;;;7.07;3.05;;;7.10;99.90;;;;;;5064396;28;20047;-82
2022/11/25 07:32:02;;;;;;;7.07;2.05;;;8.30;99.90;;;;;;5098099;28;20043;-82
2022/11/25 07:34:27;;;;;;;7.57;2.25;;;7.10;99.90;;;;;;5097898;28;20441;-82
2022/11/25 07:36:53;;;;;;;5.63;2.42;;;7.10;99.90;;;;;;5081415;28;20398;-82
2022/11/25 07:39:21;;;;;;;9.95;3.25;;;8.60;99.90;;;;;;5064283;28;20032;-82
2022/11/25 07:41:51;;;;;;;7.03;2.45;;;7.10;99.90;;;;;;5097601;28;20040;-82
2022/11/25 07:44:17;;;;;;;7.75;2.50;;;8.30;99.90;;;;;;5098193;28;20042;-81
2022/11/25 07:46:46;;;;;;;5.10;2.42;;;7.70;99.90;;;;;;5097858;28;20036;-81
2022/11/25 07:49:14;;;;;;;7.50;2.63;;;7.10;99.90;;;;;;5080454;28;20043;-81
2022/11/25 07:51:55;;;;;;;5.25;2.00;;;7.30;99.90;;;;;;5102310;27;20409;-81
2022/11/25 07:54:22;;;;;;;8.43;2.15;;;7.40;99.90;;;;;;5107594;27;20093;-81
2022/11/25 07:56:49;;;;;;;6.53;2.97;;;7.40;99.90;;;;;;5080799;28;20035;-81
2022/11/25 07:59:18;;;;;;;5.15;2.10;;;7.50;99.90;;;;;;5097114;28;20036;-81
2022/11/25 08:01:44;;;;;;;6.63;2.53;;;7.50;99.90;;;;;;5096357;28;20054;-82
2022/11/25 08:04:12;;;;;;;7.93;2.22;;;7.50;99.90;;;;;;5080463;28;20035;-82
2022/11/25 08:06:41;;;;;;;7.20;2.40;;;8.20;99.90;;;;;;5079461;27;20077;-81
2022/11/25 08:09:08;;;;;;;5.60;2.20;;;7.50;99.90;;;;;;5086674;27;20034;-81
2022/11/25 08:11:34;;;;;;;4.60;1.88;;;7.60;99.90;;;;;;5101250;27;20128;-81
2022/11/25 08:14:01;;;;;;;4.38;2.10;;;7.60;99.90;;;;;;5104968;27;20514;-81
2022/11/25 08:16:30;;;;;;;5.70;2.03;;;7.70;99.90;;;;;;5100420;27;20082;-84
2022/11/25 08:18:56;;;;;;;5.97;2.38;;;7.80;99.90;;;;;;5086142;27;20454;-84
2022/11/25 08:21:23;;;;;;;5.47;2.33;;;7.80;99.90;;;;;;5104997;27;20046;-84
2022/11/25 08:23:51;;;;;;;6.25;2.30;;;8.10;99.90;;;;;;5086212;27;20121;-84
2022/11/25 08:26:31;;;;;;;6.00;2.22;;;8.20;99.90;;;;;;5097473;28;20097;-84
2022/11/25 08:28:58;;;;;;;5.70;2.15;;;8.20;99.90;;;;;;5097006;28;20039;-84
2022/11/25 08:31:30;;;;;;;4.13;1.95;;;8.50;99.90;;;;;;5097290;28;20043;-84
2022/11/25 08:33:56;;;;;;;5.13;2.10;;;9.10;99.90;;;;;;5098299;28;20060;-86
2022/11/25 08:36:23;;;;;;;4.90;1.88;;;9.20;99.90;;;;;;5108606;28;20063;-85
2022/11/25 08:38:52;;;;;;;6.72;2.30;;;9.60;99.90;;;;;;5128494;27;20052;-86
2022/11/25 08:41:24;;;;;;;4.05;2.00;;;9.90;99.90;;;;;;5094183;28;20054;-86
2022/11/25 08:43:50;;;;;;;3.35;2.03;;;10.40;99.90;;;;;;5093168;28;20132;-86
2022/11/25 08:46:29;;;;;;;5.28;1.92;;;10.80;99.90;;;;;;5115204;28;20047;-86
2022/11/25 08:48:55;;;;;;;3.60;2.53;;;11.40;99.90;;;;;;5097354;28;20043;-86
2022/11/25 08:51:26;;;;;;;4.72;1.80;;;11.80;99.90;;;;;;5102651;28;20039;-87
2022/11/25 08:53:51;;;;;;;6.05;1.90;;;12.30;99.90;;;;;;5080361;28;20159;-87
2022/11/25 08:56:18;;;;;;;3.70;1.42;;;12.30;99.90;;;;;;5079444;28;20509;-87
2022/11/25 08:58:44;;;;;;;6.28;1.80;;;12.40;99.90;;;;;;5095881;28;20040;-87
2022/11/25 09:01:11;;;;;;;2.28;1.60;;;12.20;99.90;;;;;;5077533;28;20046;-87
2022/11/25 09:03:39;;;;;;;4.43;1.92;;;12.00;99.90;;;;;;5097244;28;20042;-86
2022/11/25 09:06:06;;;;;;;4.78;2.03;;;11.60;99.90;;;;;;5097324;28;20048;-86
2022/11/25 09:08:33;;;;;;;3.72;1.83;;;11.30;99.90;;;;;;5080917;28;20051;-87
2022/11/25 09:10:59;;;;;;;4.50;1.70;;;11.30;99.90;;;;;;5064447;28;20047;-87
2022/11/25 09:13:25;;;;;;;3.80;1.67;;;11.30;99.90;;;;;;5097483;28;20048;-87
2022/11/25 09:15:51;;;;;;;2.53;1.35;;;11.00;99.90;;;;;;5080358;28;20051;-87
2022/11/25 09:18:19;;;;;;;4.80;1.90;;;10.70;99.90;;;;;;5087082;23;20052;-82
2022/11/25 09:20:45;;;;;;;3.83;1.63;;;10.50;99.90;;;;;;5094341;27;20067;-82
2022/11/25 09:23:12;;;;;;;3.72;1.45;;;10.30;99.90;;;;;;5073321;27;20039;-82
2022/11/25 09:25:38;;;;;;;4.35;1.58;;;10.40;99.90;;;;;;5085879;27;20637;-82
2022/11/25 09:28:04;;;;;;;5.43;2.13;;;10.40;99.90;;;;;;5102141;28;20035;-81
2022/11/25 09:30:30;;;;;;;5.55;1.80;;;10.30;99.90;;;;;;5070032;28;20457;-82
2022/11/25 09:32:56;;;;;;;5.53;2.20;;;10.20;99.90;;;;;;5077837;27;20036;-82
2022/11/25 09:35:23;;;;;;;4.78;1.67;;;10.10;99.90;;;;;;5080540;28;20108;-82
2022/11/25 09:37:49;;;;;;;5.20;1.70;;;10.10;99.90;;;;;;5095914;28;20044;-81
2022/11/25 09:40:36;;;;;;;4.68;1.73;;;10.80;99.90;;;;;;5080057;28;20032;-85
2022/11/25 09:46:42;;;;;;;;;;;10.30;99.90;;;;;;5069982;28;20043;-85
2022/11/25 09:49:13;;;;;;;7.60;1.48;;;10.50;99.90;;;;;;5076848;28;19916;-85
2022/11/25 09:52:17;;;;;;;5.53;1.75;;;10.50;99.90;;;;;;5076776;28;20055;-85
2022/11/25 09:54:51;;;;;;;4.22;1.67;;;10.60;99.90;;;;;;5059933;28;20040;-85
2022/11/25 09:57:25;;;;;;;5.05;1.48;;;11.00;99.90;;;;;;5078497;28;20046;-83
2022/11/25 10:00:17;;;;;;;5.90;1.70;;;11.20;99.90;;;;;;5097137;28;20130;-82
2022/11/25 10:02:55;;;;;;;4.28;1.70;;;11.20;99.90;;;;;;5079827;28;20044;-82
2022/11/25 10:05:25;;;;;;;10.68;2.10;;;11.20;99.90;;;;;;5080315;28;20039;-82
2022/11/25 10:08:01;;;;;;;5.60;1.67;;;11.10;99.90;;;;;;5080087;28;20514;-82
2022/11/25 10:10:31;;;;;;;4.53;1.98;;;11.00;99.90;;;;;;5079569;28;20102;-82
2022/11/25 10:12:58;;;;;;;4.50;1.83;;;10.80;99.90;;;;;;5079295;28;20043;-83
2022/11/25 10:15:33;;;;;;;4.80;1.90;;;10.70;99.90;;;;;;5095789;28;20039;-82
2022/11/25 10:18:28;;;;;;;9.13;2.05;;;10.60;99.90;;;;;;5095833;28;20062;-83
2022/11/25 10:20:56;;;;;;;4.13;1.70;;;10.60;99.90;;;;;;5053895;28;20044;-82
2022/11/25 10:23:26;;;;;;;6.38;1.80;;;10.60;99.90;;;;;;5079664;28;20089;-86
2022/11/25 10:26:00;;;;;;;6.18;1.80;;;10.70;99.90;;;;;;5096152;28;20047;-85
2022/11/25 10:28:32;;;;;;;5.78;1.85;;;10.90;99.90;;;;;;5095985;28;20039;-85
2022/11/25 10:30:57;;;;;;;4.15;1.58;;;11.00;99.90;;;;;;5096002;28;20762;-82
2022/11/25 10:33:45;;;;;;;4.28;2.17;;;11.30;99.90;;;;;;5096325;28;20039;-82
2022/11/25 10:36:24;;;;;;;8.43;2.00;;;11.50;99.90;;;;;;5096185;28;20039;-81
2022/11/25 10:39:15;;;;;;;4.28;1.88;;;12.00;99.90;;;;;;5078576;28;20032;-82
2022/11/25 10:41:55;;;;;;;4.97;1.80;;;12.50;99.90;;;;;;5079047;28;20039;-82
2022/11/25 10:44:28;;;;;;;6.60;1.38;;;12.60;99.90;;;;;;5096428;28;20118;-82
2022/11/25 10:47:06;;;;;;;10.63;1.80;;;12.90;99.90;;;;;;5079353;28;20042;-86
2022/11/25 10:50:00;;;;;;;3.75;1.27;;;13.40;99.90;;;;;;5094752;28;20043;-80
2022/11/25 10:52:29;;;;;;;4.70;1.33;;;13.30;99.90;;;;;;5090407;28;20112;-80
2022/11/25 10:55:19;;;;;;;3.10;1.73;;;13.50;99.90;;;;;;5095127;28;20051;-81
2022/11/25 10:57:45;;;;;;;4.95;1.70;;;13.80;99.90;;;;;;5094368;28;20044;-79
2022/11/25 11:00:32;;;;;;;3.17;1.05;;;13.70;99.90;;;;;;5094595;28;20047;-79
2022/11/25 11:03:12;;;;;;;3.72;1.20;;;13.20;99.90;;;;;;5093912;28;20040;-80
2022/11/25 11:05:47;;;;;;;5.03;1.42;;;13.00;99.90;;;;;;5109528;28;20040;-80
2022/11/25 11:08:24;;;;;;;8.23;2.30;;;12.80;99.90;;;;;;5092061;28;20085;-81
2022/11/25 11:11:28;;;;;;;;;;;12.60;99.90;;;;;;5077674;28;20040;-81
2022/11/25 11:14:09;;;;;;;8.32;2.03;;;12.30;99.90;;;;;;5032686;28;20299;-81
2022/11/25 11:16:38;;;;;;;5.38;1.20;;;11.90;99.90;;;;;;5062831;28;20049;-81
2022/11/25 11:19:03;;;;;;;4.35;1.15;;;11.70;99.90;;;;;;5071057;28;20060;-81
2022/11/25 11:21:35;;;;;;;5.20;1.45;;;11.60;99.90;;;;;;5054807;28;20472;-80
2022/11/25 11:24:02;;;;;;;9.73;1.45;;;11.50;99.90;;;;;;5073961;28;20077;-81
2022/11/25 11:26:31;;;;;;;4.40;1.17;;;11.40;99.90;;;;;;5074857;28;20063;-81
2022/11/25 11:28:58;;;;;;;6.65;2.05;;;11.30;99.90;;;;;;5091906;28;20136;-81
2022/11/25 11:31:50;;;;;;;4.28;1.17;;;11.00;99.90;;;;;;5092139;28;20040;-81
2022/11/25 11:34:24;;;;;;;5.15;1.85;;;11.40;99.90;;;;;;5085074;28;20113;-80
2022/11/25 11:36:50;;;;;;;6.22;1.60;;;11.60;99.90;;;;;;5089727;28;20036;-80
2022/11/25 11:39:34;;;;;;;5.07;1.55;;;11.70;99.90;;;;;;5079549;28;20170;-80
2022/11/25 11:42:25;;;;;;;6.35;1.23;;;11.90;99.90;;;;;;5090449;28;20040;-78
2022/11/25 11:45:03;;;;;;;6.65;1.33;;;12.00;99.90;;;;;;5088506;28;20495;-78
2022/11/25 11:47:52;;;;;;;7.65;1.73;;;12.10;99.90;;;;;;5090776;28;20127;-78
2022/11/25 11:50:59;;;;;;;2.90;0.85;;;11.70;99.90;;;;;;5082976;28;20036;-78
2022/11/25 11:53:52;;;;;;;7.28;1.33;;;11.70;99.90;;;;;;5058367;28;20437;-78
2022/11/25 11:56:45;;;;;;;5.15;1.75;;;11.50;99.90;;;;;;5081805;28;20688;-78
2022/11/25 11:59:27;;;;;;;7.15;1.35;;;11.40;99.90;;;;;;5080293;28;20419;-78
2022/11/25 12:02:17;;;;;;;7.70;1.50;;;11.30;99.90;;;;;;5091496;28;20130;-78
2022/11/25 12:05:10;;;;;;;5.97;1.40;;;11.40;99.90;;;;;;5085730;28;20036;-78
2022/11/25 12:07:51;;;;;;;6.63;1.48;;;11.50;99.90;;;;;;5086245;28;20048;-78
2022/11/25 12:10:41;;;;;;;4.80;1.30;;;11.50;99.90;;;;;;5075918;28;20071;-79
2022/11/25 12:13:41;;;;;;;5.75;1.38;;;11.50;99.90;;;;;;5091856;28;20039;-79
2022/11/25 12:16:12;;;;;;;6.03;1.08;;;11.40;99.90;;;;;;5104137;28;20031;-79
2022/11/25 12:18:44;;;;;;;4.93;1.23;;;11.50;99.90;;;;;;5103240;28;20059;-79
2022/11/25 12:21:36;;;;;;;13.18;2.05;;;11.60;99.90;;;;;;5081129;28;20035;-79
2022/11/25 12:24:28;;;;;;;5.97;1.55;;;11.70;99.90;;;;;;5096362;28;20047;-79
2022/11/25 12:27:05;;;;;;;3.50;0.93;;;11.70;99.90;;;;;;5074010;28;20044;-79
2022/11/25 12:29:40;;;;;;;4.18;1.00;;;11.70;99.90;;;;;;5057367;28;20040;-79
2022/11/25 12:32:36;;;;;;;3.83;1.23;;;12.00;99.90;;;;;;5077511;28;20044;-79
2022/11/25 12:35:05;;;;;;;2.83;1.20;;;12.00;99.90;;;;;;5073885;28;20049;-79
2022/11/25 12:37:46;;;;;;;5.55;1.30;;;11.80;99.90;;;;;;5073337;28;20314;-79
2022/11/25 12:40:17;;;;;;;8.18;2.20;;;11.60;99.90;;;;;;5062779;28;20108;-79
2022/11/25 12:42:45;;;;;;;10.25;1.50;;;11.70;99.90;;;;;;5093570;28;20427;-79
2022/11/25 12:45:25;;;;;;;6.53;1.25;;;11.70;99.90;;;;;;5095270;28;20105;-78
2022/11/25 12:47:51;;;;;;;6.97;1.50;;;11.80;99.90;;;;;;5097743;28;20045;-78
2022/11/25 12:50:42;;;;;;;10.43;2.53;;;11.80;99.90;;;;;;5100283;28;20112;-78
2022/11/25 12:53:24;;;;;;;11.88;2.00;;;11.90;99.90;;;;;;5076309;28;20139;-78
2022/11/25 12:55:52;;;;;;;8.00;1.10;;;12.10;99.90;;;;;;5076031;28;20040;-78
2022/11/25 12:58:23;;;;;;;6.72;1.92;;;12.20;99.90;;;;;;5079057;28;20044;-78
2022/11/25 13:01:07;;;;;;;5.13;1.10;;;12.20;99.90;;;;;;5084716;28;20040;-80
2022/11/25 13:04:17;;;;;;;9.27;2.92;;;12.10;99.90;;;;;;5091787;28;20051;-80
2022/11/25 13:07:03;;;;;;;5.60;1.48;;;11.90;99.90;;;;;;5075896;28;20047;-80
2022/11/25 13:10:00;;;;;;;9.15;1.73;;;11.70;99.90;;;;;;5094055;28;20058;-80
2022/11/25 13:12:39;;;;;;;6.50;1.33;;;11.60;99.90;;;;;;5092391;28;20075;-80
2022/11/25 13:15:28;;;;;;;7.03;2.40;;;11.80;99.90;;;;;;5093052;28;20119;-80
2022/11/25 13:17:59;;;;;;;10.70;1.50;;;12.20;99.90;;;;;;5093439;28;20062;-80
2022/11/25 13:20:28;;;;;;;5.65;1.33;;;12.40;99.90;;;;;;5095218;28;20047;-78
2022/11/25 13:23:01;;;;;;;6.97;1.65;;;12.40;99.90;;;;;;5079978;28;20032;-78
2022/11/25 13:25:28;;;;;;;4.55;1.15;;;12.50;99.90;;;;;;5096536;28;20035;-78
2022/11/25 13:27:54;;;;;;;6.78;1.90;;;12.60;99.90;;;;;;5080408;28;20086;-78
2022/11/25 13:30:51;;;;;;;2.50;1.08;;;12.70;99.90;;;;;;5080205;28;20075;-78
2022/11/25 13:33:16;;;;;;;4.30;1.00;;;12.80;99.90;;;;;;5080956;28;20051;-78
2022/11/25 13:35:42;;;;;;;5.93;1.10;;;12.90;99.90;;;;;;5079451;28;20509;-79
2022/11/25 13:38:27;;;;;;;3.42;1.08;;;12.90;99.90;;;;;;5086309;28;20093;-78
2022/11/25 13:41:02;;;;;;;2.80;0.80;;;12.90;99.90;;;;;;5059226;28;20126;-78
2022/11/25 13:43:28;;;;;;;3.00;1.52;;;12.90;99.90;;;;;;5096122;28;20051;-78
2022/11/25 13:45:54;;;;;;;5.93;1.10;;;12.70;99.90;;;;;;5088860;28;20140;-81
2022/11/25 13:48:33;;;;;;;6.03;2.30;;;12.50;99.90;;;;;;5095987;28;20160;-81